sensor_id;sensor_type;location;lat;lon;timestamp;P1;durP1;ratioP1;P2;durP2;ratioP2
25780;SDS011;13626;48.128;11.628;2023-11-18T00:01:38;6.35;;;5.35;;
25780;SDS011;13626;48.128;11.628;2023-11-18T00:04:07;7.80;;;5.82;;
25780;SDS011;13626;48.128;11.628;2023-11-18T00:06:42;8.55;;;5.85;;
25780;SDS011;13626;48.128;11.628;2023-11-18T00:09:13;7.28;;;5.32;;
25780;SDS011;13626;48.128;11.628;2023-11-18T00:11:41;8.63;;;5.78;;
25780;SDS011;13626;48.128;11.628;2023-11-18T00:14:09;7.82;;;5.47;;
25780;SDS011;13626;48.128;11.628;2023-11-18T00:16:37;8.57;;;5.70;;
25780;SDS011;13626;48.128;11.628;2023-11-18T00:19:05;6.38;;;5.10;;
25780;SDS011;13626;48.128;11.628;2023-11-18T00:21:32;6.18;;;4.88;;
25780;SDS011;13626;48.128;11.628;2023-11-18T00:24:01;6.85;;;5.45;;
25780;SDS011;13626;48.128;11.628;2023-11-18T00:26:28;7.03;;;5.20;;
25780;SDS011;13626;48.128;11.628;2023-11-18T00:28:55;7.43;;;4.90;;
25780;SDS011;13626;48.128;11.628;2023-11-18T00:31:22;5.63;;;4.70;;
25780;SDS011;13626;48.128;11.628;2023-11-18T00:33:51;5.55;;;4.97;;
25780;SDS011;13626;48.128;11.628;2023-11-18T00:36:19;7.13;;;5.28;;
25780;SDS011;13626;48.128;11.628;2023-11-18T00:38:46;6.40;;;4.70;;
25780;SDS011;13626;48.128;11.628;2023-11-18T00:41:13;6.18;;;4.65;;
25780;SDS011;13626;48.128;11.628;2023-11-18T00:43:40;5.63;;;4.72;;
25780;SDS011;13626;48.128;11.628;2023-11-18T00:46:08;6.10;;;4.30;;
25780;SDS011;13626;48.128;11.628;2023-11-18T00:48:36;5.60;;;4.53;;
25780;SDS011;13626;48.128;11.628;2023-11-18T00:51:03;5.68;;;4.00;;
25780;SDS011;13626;48.128;11.628;2023-11-18T00:53:30;5.10;;;4.53;;
25780;SDS011;13626;48.128;11.628;2023-11-18T00:55:58;4.57;;;4.18;;
25780;SDS011;13626;48.128;11.628;2023-11-18T00:58:25;4.97;;;3.97;;
25780;SDS011;13626;48.128;11.628;2023-11-18T01:00:52;4.20;;;3.80;;
25780;SDS011;13626;48.128;11.628;2023-11-18T01:03:20;4.38;;;3.90;;
25780;SDS011;13626;48.128;11.628;2023-11-18T01:05:47;5.95;;;3.97;;
25780;SDS011;13626;48.128;11.628;2023-11-18T01:08:14;5.10;;;3.80;;
25780;SDS011;13626;48.128;11.628;2023-11-18T01:10:42;4.50;;;3.65;;
25780;SDS011;13626;48.128;11.628;2023-11-18T01:13:10;4.15;;;3.47;;
25780;SDS011;13626;48.128;11.628;2023-11-18T01:15:38;5.38;;;3.80;;
25780;SDS011;13626;48.128;11.628;2023-11-18T01:18:06;4.55;;;3.25;;
25780;SDS011;13626;48.128;11.628;2023-11-18T01:20:33;4.45;;;3.45;;
25780;SDS011;13626;48.128;11.628;2023-11-18T01:23:00;5.10;;;3.05;;
25780;SDS011;13626;48.128;11.628;2023-11-18T01:25:28;2.78;;;2.55;;
25780;SDS011;13626;48.128;11.628;2023-11-18T01:27:56;3.42;;;2.70;;
25780;SDS011;13626;48.128;11.628;2023-11-18T01:30:23;3.53;;;2.60;;
25780;SDS011;13626;48.128;11.628;2023-11-18T01:32:53;3.17;;;2.72;;
25780;SDS011;13626;48.128;11.628;2023-11-18T01:35:21;2.72;;;2.53;;
25780;SDS011;13626;48.128;11.628;2023-11-18T01:37:48;3.03;;;2.72;;
25780;SDS011;13626;48.128;11.628;2023-11-18T01:40:15;2.95;;;2.65;;
25780;SDS011;13626;48.128;11.628;2023-11-18T01:42:44;3.38;;;2.65;;
25780;SDS011;13626;48.128;11.628;2023-11-18T01:45:13;2.60;;;2.28;;
25780;SDS011;13626;48.128;11.628;2023-11-18T01:47:40;2.65;;;2.45;;
25780;SDS011;13626;48.128;11.628;2023-11-18T01:50:08;3.35;;;2.50;;
25780;SDS011;13626;48.128;11.628;2023-11-18T01:52:37;2.28;;;2.08;;
25780;SDS011;13626;48.128;11.628;2023-11-18T01:55:07;2.80;;;2.45;;
25780;SDS011;13626;48.128;11.628;2023-11-18T01:57:34;4.30;;;2.42;;
25780;SDS011;13626;48.128;11.628;2023-11-18T02:00:03;2.42;;;2.22;;
25780;SDS011;13626;48.128;11.628;2023-11-18T02:02:32;2.35;;;2.05;;
25780;SDS011;13626;48.128;11.628;2023-11-18T02:05:01;2.90;;;2.38;;
25780;SDS011;13626;48.128;11.628;2023-11-18T02:07:28;2.60;;;2.40;;
25780;SDS011;13626;48.128;11.628;2023-11-18T02:09:56;3.00;;;2.25;;
25780;SDS011;13626;48.128;11.628;2023-11-18T02:12:48;2.63;;;2.40;;
25780;SDS011;13626;48.128;11.628;2023-11-18T02:15:12;2.95;;;2.30;;
25780;SDS011;13626;48.128;11.628;2023-11-18T02:17:40;2.83;;;2.58;;
25780;SDS011;13626;48.128;11.628;2023-11-18T02:20:12;2.70;;;2.40;;
25780;SDS011;13626;48.128;11.628;2023-11-18T02:22:43;3.20;;;2.75;;
25780;SDS011;13626;48.128;11.628;2023-11-18T02:25:16;3.00;;;2.70;;
25780;SDS011;13626;48.128;11.628;2023-11-18T02:27:47;2.33;;;2.13;;
25780;SDS011;13626;48.128;11.628;2023-11-18T02:30:15;2.90;;;2.22;;
25780;SDS011;13626;48.128;11.628;2023-11-18T02:35:41;3.55;;;2.70;;
25780;SDS011;13626;48.128;11.628;2023-11-18T02:38:15;3.17;;;2.65;;
25780;SDS011;13626;48.128;11.628;2023-11-18T02:40:44;2.88;;;2.63;;
25780;SDS011;13626;48.128;11.628;2023-11-18T02:43:14;3.70;;;2.47;;
25780;SDS011;13626;48.128;11.628;2023-11-18T02:45:43;3.03;;;2.60;;
25780;SDS011;13626;48.128;11.628;2023-11-18T02:48:11;3.38;;;2.42;;
25780;SDS011;13626;48.128;11.628;2023-11-18T02:50:38;3.45;;;2.78;;
25780;SDS011;13626;48.128;11.628;2023-11-18T02:53:08;3.05;;;2.75;;
25780;SDS011;13626;48.128;11.628;2023-11-18T02:55:35;2.42;;;2.08;;
25780;SDS011;13626;48.128;11.628;2023-11-18T02:58:03;2.60;;;2.40;;
25780;SDS011;13626;48.128;11.628;2023-11-18T03:00:32;2.60;;;2.15;;
25780;SDS011;13626;48.128;11.628;2023-11-18T03:02:59;2.50;;;2.30;;
25780;SDS011;13626;48.128;11.628;2023-11-18T03:05:27;3.05;;;2.38;;
25780;SDS011;13626;48.128;11.628;2023-11-18T03:07:54;2.92;;;2.03;;
25780;SDS011;13626;48.128;11.628;2023-11-18T03:10:24;2.95;;;2.65;;
25780;SDS011;13626;48.128;11.628;2023-11-18T03:12:52;3.13;;;2.40;;
25780;SDS011;13626;48.128;11.628;2023-11-18T03:15:20;2.83;;;2.53;;
25780;SDS011;13626;48.128;11.628;2023-11-18T03:17:48;2.55;;;2.35;;
25780;SDS011;13626;48.128;11.628;2023-11-18T03:20:17;2.50;;;2.30;;
25780;SDS011;13626;48.128;11.628;2023-11-18T03:22:48;2.90;;;2.60;;
25780;SDS011;13626;48.128;11.628;2023-11-18T03:25:16;3.22;;;2.60;;
25780;SDS011;13626;48.128;11.628;2023-11-18T03:27:44;2.90;;;2.60;;
25780;SDS011;13626;48.128;11.628;2023-11-18T03:30:11;3.55;;;2.70;;
25780;SDS011;13626;48.128;11.628;2023-11-18T03:32:39;3.25;;;2.95;;
25780;SDS011;13626;48.128;11.628;2023-11-18T03:35:07;3.17;;;2.75;;
25780;SDS011;13626;48.128;11.628;2023-11-18T03:37:36;2.80;;;2.33;;
25780;SDS011;13626;48.128;11.628;2023-11-18T03:40:14;2.70;;;2.47;;
25780;SDS011;13626;48.128;11.628;2023-11-18T03:42:41;3.33;;;2.80;;
25780;SDS011;13626;48.128;11.628;2023-11-18T03:45:09;4.63;;;2.95;;
25780;SDS011;13626;48.128;11.628;2023-11-18T03:47:37;3.53;;;2.83;;
25780;SDS011;13626;48.128;11.628;2023-11-18T03:50:04;3.08;;;2.58;;
25780;SDS011;13626;48.128;11.628;2023-11-18T03:52:35;3.28;;;2.65;;
25780;SDS011;13626;48.128;11.628;2023-11-18T03:55:04;2.85;;;2.55;;
25780;SDS011;13626;48.128;11.628;2023-11-18T03:57:31;3.75;;;2.97;;
25780;SDS011;13626;48.128;11.628;2023-11-18T03:59:59;3.03;;;2.70;;
25780;SDS011;13626;48.128;11.628;2023-11-18T04:02:26;3.40;;;3.10;;
25780;SDS011;13626;48.128;11.628;2023-11-18T04:04:55;3.63;;;2.95;;
25780;SDS011;13626;48.128;11.628;2023-11-18T04:07:23;3.05;;;2.70;;
25780;SDS011;13626;48.128;11.628;2023-11-18T04:09:50;3.20;;;2.90;;
25780;SDS011;13626;48.128;11.628;2023-11-18T04:12:17;3.97;;;2.85;;
25780;SDS011;13626;48.128;11.628;2023-11-18T04:14:44;3.47;;;3.17;;
25780;SDS011;13626;48.128;11.628;2023-11-18T04:17:12;3.55;;;3.20;;
25780;SDS011;13626;48.128;11.628;2023-11-18T04:19:39;3.53;;;3.10;;
25780;SDS011;13626;48.128;11.628;2023-11-18T04:22:07;3.45;;;3.15;;
25780;SDS011;13626;48.128;11.628;2023-11-18T04:24:35;4.10;;;3.45;;
25780;SDS011;13626;48.128;11.628;2023-11-18T04:27:03;5.00;;;3.78;;
25780;SDS011;13626;48.128;11.628;2023-11-18T04:29:30;5.20;;;3.53;;
25780;SDS011;13626;48.128;11.628;2023-11-18T04:31:57;4.78;;;3.97;;
25780;SDS011;13626;48.128;11.628;2023-11-18T04:34:26;3.92;;;3.53;;
25780;SDS011;13626;48.128;11.628;2023-11-18T04:36:53;5.07;;;3.75;;
25780;SDS011;13626;48.128;11.628;2023-11-18T04:39:21;3.80;;;3.25;;
25780;SDS011;13626;48.128;11.628;2023-11-18T04:41:48;3.80;;;3.20;;
25780;SDS011;13626;48.128;11.628;2023-11-18T04:44:16;3.75;;;3.30;;
25780;SDS011;13626;48.128;11.628;2023-11-18T04:46:44;4.80;;;3.50;;
25780;SDS011;13626;48.128;11.628;2023-11-18T04:49:11;4.82;;;3.88;;
25780;SDS011;13626;48.128;11.628;2023-11-18T04:51:38;4.25;;;3.67;;
25780;SDS011;13626;48.128;11.628;2023-11-18T04:54:06;5.95;;;3.60;;
25780;SDS011;13626;48.128;11.628;2023-11-18T04:56:34;4.85;;;3.75;;
25780;SDS011;13626;48.128;11.628;2023-11-18T04:59:02;5.25;;;3.80;;
25780;SDS011;13626;48.128;11.628;2023-11-18T05:01:33;5.00;;;4.00;;
25780;SDS011;13626;48.128;11.628;2023-11-18T05:04:00;3.88;;;3.38;;
25780;SDS011;13626;48.128;11.628;2023-11-18T05:06:28;3.95;;;3.55;;
25780;SDS011;13626;48.128;11.628;2023-11-18T05:08:55;4.18;;;3.55;;
25780;SDS011;13626;48.128;11.628;2023-11-18T05:11:23;4.70;;;3.35;;
25780;SDS011;13626;48.128;11.628;2023-11-18T05:13:50;4.38;;;3.42;;
25780;SDS011;13626;48.128;11.628;2023-11-18T05:16:18;4.18;;;3.50;;
25780;SDS011;13626;48.128;11.628;2023-11-18T05:18:45;5.00;;;3.95;;
25780;SDS011;13626;48.128;11.628;2023-11-18T05:21:12;4.38;;;3.60;;
25780;SDS011;13626;48.128;11.628;2023-11-18T05:23:40;4.32;;;3.75;;
25780;SDS011;13626;48.128;11.628;2023-11-18T05:26:07;4.18;;;3.35;;
25780;SDS011;13626;48.128;11.628;2023-11-18T05:28:35;5.60;;;3.80;;
25780;SDS011;13626;48.128;11.628;2023-11-18T05:31:03;4.40;;;3.42;;
25780;SDS011;13626;48.128;11.628;2023-11-18T05:33:31;4.35;;;3.83;;
25780;SDS011;13626;48.128;11.628;2023-11-18T05:36:00;3.95;;;3.45;;
25780;SDS011;13626;48.128;11.628;2023-11-18T05:38:31;4.25;;;3.60;;
25780;SDS011;13626;48.128;11.628;2023-11-18T05:41:01;4.40;;;3.70;;
25780;SDS011;13626;48.128;11.628;2023-11-18T05:43:30;4.22;;;3.47;;
25780;SDS011;13626;48.128;11.628;2023-11-18T05:46:07;4.55;;;3.67;;
25780;SDS011;13626;48.128;11.628;2023-11-18T05:48:42;5.15;;;3.65;;
25780;SDS011;13626;48.128;11.628;2023-11-18T05:51:10;4.32;;;3.60;;
25780;SDS011;13626;48.128;11.628;2023-11-18T05:53:40;4.97;;;3.88;;
25780;SDS011;13626;48.128;11.628;2023-11-18T05:56:10;3.95;;;3.55;;
25780;SDS011;13626;48.128;11.628;2023-11-18T05:58:37;7.40;;;4.03;;
25780;SDS011;13626;48.128;11.628;2023-11-18T06:01:06;5.35;;;3.75;;
25780;SDS011;13626;48.128;11.628;2023-11-18T06:03:34;5.35;;;3.97;;
25780;SDS011;13626;48.128;11.628;2023-11-18T06:06:06;4.00;;;3.60;;
25780;SDS011;13626;48.128;11.628;2023-11-18T06:08:34;4.53;;;3.70;;
25780;SDS011;13626;48.128;11.628;2023-11-18T06:11:01;3.95;;;3.40;;
25780;SDS011;13626;48.128;11.628;2023-11-18T06:16:09;3.90;;;3.50;;
25780;SDS011;13626;48.128;11.628;2023-11-18T06:18:43;3.90;;;3.25;;
25780;SDS011;13626;48.128;11.628;2023-11-18T06:21:12;6.43;;;3.75;;
25780;SDS011;13626;48.128;11.628;2023-11-18T06:23:39;3.63;;;3.25;;
25780;SDS011;13626;48.128;11.628;2023-11-18T06:26:06;4.25;;;3.10;;
25780;SDS011;13626;48.128;11.628;2023-11-18T06:28:43;4.32;;;3.60;;
25780;SDS011;13626;48.128;11.628;2023-11-18T06:31:11;5.27;;;3.63;;
25780;SDS011;13626;48.128;11.628;2023-11-18T06:36:09;3.88;;;3.17;;
25780;SDS011;13626;48.128;11.628;2023-11-18T06:38:40;5.30;;;3.55;;
25780;SDS011;13626;48.128;11.628;2023-11-18T06:41:08;4.90;;;3.20;;
25780;SDS011;13626;48.128;11.628;2023-11-18T06:43:39;4.25;;;3.47;;
25780;SDS011;13626;48.128;11.628;2023-11-18T06:48:52;3.92;;;3.20;;
25780;SDS011;13626;48.128;11.628;2023-11-18T06:51:24;4.05;;;3.15;;
25780;SDS011;13626;48.128;11.628;2023-11-18T06:53:52;3.65;;;3.10;;
25780;SDS011;13626;48.128;11.628;2023-11-18T06:56:21;5.22;;;2.90;;
25780;SDS011;13626;48.128;11.628;2023-11-18T06:58:49;4.68;;;3.40;;
25780;SDS011;13626;48.128;11.628;2023-11-18T07:01:16;4.20;;;3.03;;
25780;SDS011;13626;48.128;11.628;2023-11-18T07:03:45;4.30;;;3.50;;
25780;SDS011;13626;48.128;11.628;2023-11-18T07:06:18;5.72;;;3.45;;
25780;SDS011;13626;48.128;11.628;2023-11-18T07:08:49;6.70;;;3.30;;
25780;SDS011;13626;48.128;11.628;2023-11-18T07:11:16;4.90;;;3.50;;
25780;SDS011;13626;48.128;11.628;2023-11-18T07:13:44;3.58;;;3.00;;
25780;SDS011;13626;48.128;11.628;2023-11-18T07:16:12;3.92;;;3.33;;
25780;SDS011;13626;48.128;11.628;2023-11-18T07:18:41;4.78;;;3.53;;
25780;SDS011;13626;48.128;11.628;2023-11-18T07:21:09;5.90;;;3.85;;
25780;SDS011;13626;48.128;11.628;2023-11-18T07:23:36;4.05;;;3.22;;
25780;SDS011;13626;48.128;11.628;2023-11-18T07:26:03;4.80;;;3.13;;
25780;SDS011;13626;48.128;11.628;2023-11-18T07:28:31;4.50;;;3.80;;
25780;SDS011;13626;48.128;11.628;2023-11-18T07:30:58;4.47;;;3.22;;
25780;SDS011;13626;48.128;11.628;2023-11-18T07:33:26;4.00;;;3.47;;
25780;SDS011;13626;48.128;11.628;2023-11-18T07:35:53;5.97;;;3.25;;
25780;SDS011;13626;48.128;11.628;2023-11-18T07:38:21;4.68;;;3.47;;
25780;SDS011;13626;48.128;11.628;2023-11-18T07:40:49;4.47;;;3.47;;
25780;SDS011;13626;48.128;11.628;2023-11-18T07:43:22;4.20;;;3.60;;
25780;SDS011;13626;48.128;11.628;2023-11-18T07:45:50;5.03;;;3.50;;
25780;SDS011;13626;48.128;11.628;2023-11-18T07:48:19;4.60;;;3.20;;
25780;SDS011;13626;48.128;11.628;2023-11-18T07:50:47;3.75;;;3.40;;
25780;SDS011;13626;48.128;11.628;2023-11-18T07:53:14;3.92;;;3.13;;
25780;SDS011;13626;48.128;11.628;2023-11-18T07:55:42;3.50;;;2.80;;
25780;SDS011;13626;48.128;11.628;2023-11-18T07:58:11;4.15;;;3.20;;
25780;SDS011;13626;48.128;11.628;2023-11-18T08:00:41;4.82;;;3.03;;
25780;SDS011;13626;48.128;11.628;2023-11-18T08:03:09;4.50;;;3.35;;
25780;SDS011;13626;48.128;11.628;2023-11-18T08:05:41;4.85;;;3.28;;
25780;SDS011;13626;48.128;11.628;2023-11-18T08:08:14;3.65;;;2.85;;
25780;SDS011;13626;48.128;11.628;2023-11-18T08:10:44;5.07;;;3.97;;
25780;SDS011;13626;48.128;11.628;2023-11-18T08:13:14;5.03;;;2.90;;
25780;SDS011;13626;48.128;11.628;2023-11-18T08:15:42;3.78;;;2.80;;
25780;SDS011;13626;48.128;11.628;2023-11-18T08:18:13;3.92;;;2.80;;
25780;SDS011;13626;48.128;11.628;2023-11-18T08:20:40;4.82;;;3.15;;
25780;SDS011;13626;48.128;11.628;2023-11-18T08:23:08;4.00;;;3.20;;
25780;SDS011;13626;48.128;11.628;2023-11-18T08:25:35;4.72;;;3.40;;
25780;SDS011;13626;48.128;11.628;2023-11-18T08:28:03;3.47;;;3.00;;
25780;SDS011;13626;48.128;11.628;2023-11-18T08:30:31;4.75;;;3.42;;
25780;SDS011;13626;48.128;11.628;2023-11-18T08:33:00;4.22;;;2.92;;
25780;SDS011;13626;48.128;11.628;2023-11-18T08:35:32;3.28;;;2.97;;
25780;SDS011;13626;48.128;11.628;2023-11-18T08:37:59;4.38;;;3.08;;
25780;SDS011;13626;48.128;11.628;2023-11-18T08:40:28;4.28;;;3.00;;
25780;SDS011;13626;48.128;11.628;2023-11-18T08:42:55;4.97;;;2.92;;
25780;SDS011;13626;48.128;11.628;2023-11-18T08:45:25;3.72;;;3.00;;
25780;SDS011;13626;48.128;11.628;2023-11-18T08:47:56;3.45;;;2.88;;
25780;SDS011;13626;48.128;11.628;2023-11-18T08:50:24;3.88;;;3.08;;
25780;SDS011;13626;48.128;11.628;2023-11-18T08:52:55;3.67;;;3.00;;
25780;SDS011;13626;48.128;11.628;2023-11-18T08:55:29;3.10;;;2.50;;
25780;SDS011;13626;48.128;11.628;2023-11-18T08:58:09;5.45;;;2.72;;
25780;SDS011;13626;48.128;11.628;2023-11-18T09:00:48;2.90;;;2.40;;
25780;SDS011;13626;48.128;11.628;2023-11-18T09:03:23;2.53;;;2.22;;
25780;SDS011;13626;48.128;11.628;2023-11-18T09:05:55;2.80;;;2.47;;
25780;SDS011;13626;48.128;11.628;2023-11-18T09:08:27;3.05;;;2.30;;
25780;SDS011;13626;48.128;11.628;2023-11-18T09:10:56;3.45;;;2.70;;
25780;SDS011;13626;48.128;11.628;2023-11-18T09:13:24;2.25;;;1.90;;
25780;SDS011;13626;48.128;11.628;2023-11-18T09:15:56;2.70;;;2.35;;
25780;SDS011;13626;48.128;11.628;2023-11-18T09:18:24;2.72;;;2.17;;
25780;SDS011;13626;48.128;11.628;2023-11-18T09:20:52;3.22;;;2.40;;
25780;SDS011;13626;48.128;11.628;2023-11-18T09:23:19;3.25;;;2.22;;
25780;SDS011;13626;48.128;11.628;2023-11-18T09:25:46;3.45;;;2.20;;
25780;SDS011;13626;48.128;11.628;2023-11-18T09:28:14;2.25;;;2.05;;
25780;SDS011;13626;48.128;11.628;2023-11-18T09:30:42;3.08;;;2.47;;
25780;SDS011;13626;48.128;11.628;2023-11-18T09:33:19;2.28;;;2.08;;
25780;SDS011;13626;48.128;11.628;2023-11-18T09:36:02;3.28;;;2.30;;
25780;SDS011;13626;48.128;11.628;2023-11-18T09:38:37;3.33;;;2.33;;
25780;SDS011;13626;48.128;11.628;2023-11-18T09:41:07;2.67;;;1.77;;
25780;SDS011;13626;48.128;11.628;2023-11-18T09:43:41;2.92;;;1.95;;
25780;SDS011;13626;48.128;11.628;2023-11-18T09:46:10;3.47;;;1.90;;
25780;SDS011;13626;48.128;11.628;2023-11-18T09:51:11;2.50;;;2.10;;
25780;SDS011;13626;48.128;11.628;2023-11-18T09:53:40;3.28;;;2.30;;
25780;SDS011;13626;48.128;11.628;2023-11-18T09:56:10;3.42;;;1.85;;
25780;SDS011;13626;48.128;11.628;2023-11-18T09:58:45;2.00;;;1.80;;
25780;SDS011;13626;48.128;11.628;2023-11-18T10:01:16;3.53;;;1.90;;
25780;SDS011;13626;48.128;11.628;2023-11-18T10:03:47;2.05;;;1.77;;
25780;SDS011;13626;48.128;11.628;2023-11-18T10:06:15;2.65;;;1.88;;
25780;SDS011;13626;48.128;11.628;2023-11-18T10:08:43;3.92;;;1.75;;
25780;SDS011;13626;48.128;11.628;2023-11-18T10:11:12;2.20;;;1.80;;
25780;SDS011;13626;48.128;11.628;2023-11-18T10:13:40;1.83;;;1.50;;
25780;SDS011;13626;48.128;11.628;2023-11-18T10:16:10;3.05;;;1.80;;
25780;SDS011;13626;48.128;11.628;2023-11-18T10:18:38;2.05;;;1.70;;
25780;SDS011;13626;48.128;11.628;2023-11-18T10:21:15;1.65;;;1.55;;
25780;SDS011;13626;48.128;11.628;2023-11-18T10:26:46;4.13;;;1.73;;
25780;SDS011;13626;48.128;11.628;2023-11-18T10:29:14;3.15;;;1.73;;
25780;SDS011;13626;48.128;11.628;2023-11-18T10:31:41;1.58;;;1.42;;
25780;SDS011;13626;48.128;11.628;2023-11-18T10:34:12;2.60;;;1.42;;
25780;SDS011;13626;48.128;11.628;2023-11-18T10:36:42;1.60;;;1.50;;
25780;SDS011;13626;48.128;11.628;2023-11-18T10:39:29;3.30;;;1.40;;
25780;SDS011;13626;48.128;11.628;2023-11-18T10:42:00;1.70;;;1.50;;
25780;SDS011;13626;48.128;11.628;2023-11-18T10:44:28;2.03;;;1.50;;
25780;SDS011;13626;48.128;11.628;2023-11-18T10:46:56;2.28;;;1.60;;
25780;SDS011;13626;48.128;11.628;2023-11-18T10:49:27;2.30;;;1.55;;
25780;SDS011;13626;48.128;11.628;2023-11-18T10:51:55;1.33;;;1.23;;
25780;SDS011;13626;48.128;11.628;2023-11-18T10:54:23;1.52;;;1.20;;
25780;SDS011;13626;48.128;11.628;2023-11-18T10:56:52;1.90;;;1.33;;
25780;SDS011;13626;48.128;11.628;2023-11-18T10:59:22;3.80;;;1.50;;
25780;SDS011;13626;48.128;11.628;2023-11-18T11:01:52;1.35;;;1.20;;
25780;SDS011;13626;48.128;11.628;2023-11-18T11:04:19;1.17;;;0.93;;
25780;SDS011;13626;48.128;11.628;2023-11-18T11:06:48;3.63;;;1.38;;
25780;SDS011;13626;48.128;11.628;2023-11-18T11:09:19;1.88;;;1.50;;
25780;SDS011;13626;48.128;11.628;2023-11-18T11:11:57;1.77;;;1.60;;
25780;SDS011;13626;48.128;11.628;2023-11-18T11:14:32;2.60;;;1.27;;
25780;SDS011;13626;48.128;11.628;2023-11-18T11:17:07;2.78;;;1.70;;
25780;SDS011;13626;48.128;11.628;2023-11-18T11:22:11;1.33;;;1.15;;
25780;SDS011;13626;48.128;11.628;2023-11-18T11:29:55;1.43;;;1.10;;
25780;SDS011;13626;48.128;11.628;2023-11-18T11:32:32;1.63;;;0.88;;
25780;SDS011;13626;48.128;11.628;2023-11-18T11:35:10;1.80;;;0.82;;
25780;SDS011;13626;48.128;11.628;2023-11-18T11:37:45;1.92;;;1.30;;
25780;SDS011;13626;48.128;11.628;2023-11-18T11:40:13;1.65;;;1.38;;
25780;SDS011;13626;48.128;11.628;2023-11-18T11:42:49;1.80;;;1.20;;
25780;SDS011;13626;48.128;11.628;2023-11-18T11:45:22;1.15;;;1.05;;
25780;SDS011;13626;48.128;11.628;2023-11-18T11:47:54;1.38;;;1.10;;
25780;SDS011;13626;48.128;11.628;2023-11-18T11:50:45;3.33;;;1.10;;
25780;SDS011;13626;48.128;11.628;2023-11-18T11:53:21;2.83;;;1.90;;
25780;SDS011;13626;48.128;11.628;2023-11-18T11:55:51;4.53;;;1.40;;
25780;SDS011;13626;48.128;11.628;2023-11-18T11:58:29;1.90;;;1.20;;
25780;SDS011;13626;48.128;11.628;2023-11-18T12:01:00;1.27;;;1.10;;
25780;SDS011;13626;48.128;11.628;2023-11-18T12:03:27;2.05;;;1.17;;
25780;SDS011;13626;48.128;11.628;2023-11-18T12:06:03;2.22;;;1.30;;
25780;SDS011;13626;48.128;11.628;2023-11-18T12:08:38;1.10;;;0.95;;
25780;SDS011;13626;48.128;11.628;2023-11-18T12:11:08;2.13;;;0.90;;
25780;SDS011;13626;48.128;11.628;2023-11-18T12:13:37;3.22;;;1.08;;
25780;SDS011;13626;48.128;11.628;2023-11-18T12:16:06;1.23;;;0.90;;
25780;SDS011;13626;48.128;11.628;2023-11-18T12:18:36;1.35;;;0.80;;
25780;SDS011;13626;48.128;11.628;2023-11-18T12:21:04;1.02;;;0.80;;
25780;SDS011;13626;48.128;11.628;2023-11-18T12:23:31;2.10;;;1.10;;
25780;SDS011;13626;48.128;11.628;2023-11-18T12:26:01;1.10;;;1.00;;
25780;SDS011;13626;48.128;11.628;2023-11-18T12:28:30;1.42;;;0.95;;
25780;SDS011;13626;48.128;11.628;2023-11-18T12:31:02;2.35;;;1.00;;
25780;SDS011;13626;48.128;11.628;2023-11-18T12:36:24;2.55;;;1.10;;
25780;SDS011;13626;48.128;11.628;2023-11-18T12:39:32;1.92;;;1.10;;
25780;SDS011;13626;48.128;11.628;2023-11-18T12:42:07;1.10;;;1.00;;
25780;SDS011;13626;48.128;11.628;2023-11-18T12:45:04;1.92;;;1.40;;
25780;SDS011;13626;48.128;11.628;2023-11-18T12:47:42;3.13;;;1.40;;
25780;SDS011;13626;48.128;11.628;2023-11-18T12:50:11;2.80;;;1.35;;
25780;SDS011;13626;48.128;11.628;2023-11-18T12:52:51;1.38;;;1.10;;
25780;SDS011;13626;48.128;11.628;2023-11-18T12:55:19;3.28;;;1.20;;
25780;SDS011;13626;48.128;11.628;2023-11-18T12:57:48;1.45;;;1.00;;
25780;SDS011;13626;48.128;11.628;2023-11-18T13:00:17;1.58;;;1.45;;
25780;SDS011;13626;48.128;11.628;2023-11-18T13:02:54;2.00;;;1.20;;
25780;SDS011;13626;48.128;11.628;2023-11-18T13:05:22;2.67;;;1.30;;
25780;SDS011;13626;48.128;11.628;2023-11-18T13:07:49;3.13;;;1.73;;
25780;SDS011;13626;48.128;11.628;2023-11-18T13:10:16;1.35;;;1.17;;
25780;SDS011;13626;48.128;11.628;2023-11-18T13:12:44;2.50;;;1.40;;
25780;SDS011;13626;48.128;11.628;2023-11-18T13:15:12;3.15;;;1.33;;
25780;SDS011;13626;48.128;11.628;2023-11-18T13:17:39;1.83;;;1.30;;
25780;SDS011;13626;48.128;11.628;2023-11-18T13:20:13;2.47;;;1.60;;
25780;SDS011;13626;48.128;11.628;2023-11-18T13:22:44;3.07;;;1.17;;
25780;SDS011;13626;48.128;11.628;2023-11-18T13:25:14;1.40;;;1.27;;
25780;SDS011;13626;48.128;11.628;2023-11-18T13:27:43;2.72;;;1.33;;
25780;SDS011;13626;48.128;11.628;2023-11-18T13:30:10;5.97;;;1.60;;
25780;SDS011;13626;48.128;11.628;2023-11-18T13:32:41;2.60;;;1.40;;
25780;SDS011;13626;48.128;11.628;2023-11-18T13:35:08;3.70;;;1.40;;
25780;SDS011;13626;48.128;11.628;2023-11-18T13:37:37;3.00;;;1.38;;
25780;SDS011;13626;48.128;11.628;2023-11-18T13:40:05;4.00;;;1.58;;
25780;SDS011;13626;48.128;11.628;2023-11-18T13:42:32;3.13;;;1.02;;
25780;SDS011;13626;48.128;11.628;2023-11-18T13:45:03;1.60;;;1.10;;
25780;SDS011;13626;48.128;11.628;2023-11-18T13:47:34;5.43;;;1.40;;
25780;SDS011;13626;48.128;11.628;2023-11-18T13:50:06;2.35;;;1.42;;
25780;SDS011;13626;48.128;11.628;2023-11-18T13:52:36;2.55;;;1.60;;
25780;SDS011;13626;48.128;11.628;2023-11-18T13:55:05;2.40;;;1.30;;
25780;SDS011;13626;48.128;11.628;2023-11-18T13:57:33;2.03;;;1.40;;
25780;SDS011;13626;48.128;11.628;2023-11-18T14:00:01;2.25;;;1.42;;
25780;SDS011;13626;48.128;11.628;2023-11-18T14:02:33;1.20;;;1.10;;
25780;SDS011;13626;48.128;11.628;2023-11-18T14:05:02;1.90;;;1.20;;
25780;SDS011;13626;48.128;11.628;2023-11-18T14:07:36;4.65;;;1.48;;
25780;SDS011;13626;48.128;11.628;2023-11-18T14:10:05;4.22;;;1.35;;
25780;SDS011;13626;48.128;11.628;2023-11-18T14:12:34;1.00;;;0.90;;
25780;SDS011;13626;48.128;11.628;2023-11-18T14:15:02;1.90;;;1.38;;
25780;SDS011;13626;48.128;11.628;2023-11-18T14:17:31;2.40;;;1.02;;
25780;SDS011;13626;48.128;11.628;2023-11-18T14:19:58;1.85;;;1.10;;
25780;SDS011;13626;48.128;11.628;2023-11-18T14:22:25;1.00;;;0.95;;
25780;SDS011;13626;48.128;11.628;2023-11-18T14:24:54;1.00;;;0.90;;
25780;SDS011;13626;48.128;11.628;2023-11-18T14:27:21;1.55;;;1.05;;
25780;SDS011;13626;48.128;11.628;2023-11-18T14:29:49;1.35;;;0.95;;
25780;SDS011;13626;48.128;11.628;2023-11-18T14:32:16;2.58;;;1.20;;
25780;SDS011;13626;48.128;11.628;2023-11-18T14:34:43;1.42;;;0.90;;
25780;SDS011;13626;48.128;11.628;2023-11-18T14:37:11;1.35;;;0.80;;
25780;SDS011;13626;48.128;11.628;2023-11-18T14:39:38;1.00;;;0.90;;
25780;SDS011;13626;48.128;11.628;2023-11-18T14:42:06;2.70;;;1.30;;
25780;SDS011;13626;48.128;11.628;2023-11-18T14:44:35;2.03;;;0.88;;
25780;SDS011;13626;48.128;11.628;2023-11-18T14:47:03;2.25;;;1.00;;
25780;SDS011;13626;48.128;11.628;2023-11-18T14:49:32;1.65;;;1.05;;
25780;SDS011;13626;48.128;11.628;2023-11-18T14:51:59;2.03;;;1.10;;
25780;SDS011;13626;48.128;11.628;2023-11-18T14:54:27;1.48;;;0.80;;
25780;SDS011;13626;48.128;11.628;2023-11-18T14:56:57;1.67;;;0.77;;
25780;SDS011;13626;48.128;11.628;2023-11-18T14:59:24;1.67;;;0.90;;
25780;SDS011;13626;48.128;11.628;2023-11-18T15:01:51;1.63;;;1.27;;
25780;SDS011;13626;48.128;11.628;2023-11-18T15:04:23;2.38;;;1.33;;
25780;SDS011;13626;48.128;11.628;2023-11-18T15:06:51;4.35;;;1.20;;
25780;SDS011;13626;48.128;11.628;2023-11-18T15:09:19;2.60;;;1.08;;
25780;SDS011;13626;48.128;11.628;2023-11-18T15:11:48;0.93;;;0.90;;
25780;SDS011;13626;48.128;11.628;2023-11-18T15:14:16;1.92;;;0.93;;